Webcam LFGB

En direct depuis les locaux de l'Aéro-Club du Haut-Rhin, observez la piste 20/02 comme si vous y étiez !

Rejoignez-nous

METAR 2019/09/17 07:00 LFSB 170700Z 30003KT 270V340 CAVOK 15/12 Q1020 NOSIG
TAF 2019/09/17 06:21 TAF LFSB 170500Z 1706/1806 31004KT CAVOK BECMG 1715/1718 01010KT